createdAt,value
2023-04-17T00:01:38.110Z,26.27
2023-04-17T00:04:05.597Z,24.83
2023-04-17T00:06:33.724Z,24.73
2023-04-17T00:09:00.735Z,24.47
2023-04-17T00:11:27.684Z,23.77
2023-04-17T00:13:54.684Z,26.37
2023-04-17T00:16:21.826Z,25.97
2023-04-17T00:18:48.859Z,24.17
2023-04-17T00:21:15.853Z,26.10
2023-04-17T00:23:42.794Z,24.93
2023-04-17T00:26:09.761Z,28.27
2023-04-17T00:28:36.805Z,24.10
2023-04-17T00:31:04.507Z,25.30
2023-04-17T00:33:32.794Z,23.87
2023-04-17T00:35:59.857Z,24.60
2023-04-17T00:38:26.826Z,23.90
2023-04-17T00:40:53.810Z,24.77
2023-04-17T00:43:20.825Z,22.27
2023-04-17T00:45:48.166Z,22.77
2023-04-17T00:48:15.983Z,21.97
2023-04-17T00:50:43.388Z,24.10
2023-04-17T00:53:10.499Z,22.43
2023-04-17T00:55:38.641Z,22.67
2023-04-17T00:58:06.328Z,23.13
2023-04-17T01:00:33.323Z,24.67
2023-04-17T01:03:00.511Z,22.80
2023-04-17T01:05:28.159Z,23.17
2023-04-17T01:07:55.951Z,25.10
2023-04-17T01:10:23.174Z,23.77
2023-04-17T01:13:16.629Z,25.30
2023-04-17T01:15:44.624Z,25.40
2023-04-17T01:18:12.162Z,24.10
2023-04-17T01:20:39.320Z,24.77
2023-04-17T01:23:06.358Z,25.43
2023-04-17T01:25:33.386Z,26.83
2023-04-17T01:28:00.675Z,23.70
2023-04-17T01:30:27.663Z,25.20
2023-04-17T01:32:55.892Z,25.33
2023-04-17T01:35:23.330Z,24.43
2023-04-17T01:37:50.577Z,24.57
2023-04-17T01:40:17.609Z,27.67
2023-04-17T01:42:44.583Z,27.80
2023-04-17T01:45:11.761Z,23.87
2023-04-17T01:47:38.799Z,22.30
2023-04-17T01:50:06.174Z,24.10
2023-04-17T01:52:33.166Z,26.47
2023-04-17T01:55:00.155Z,25.57
2023-04-17T01:57:28.026Z,23.97
2023-04-17T01:59:54.994Z,29.35
2023-04-17T02:02:22.010Z,25.07
2023-04-17T02:04:49.006Z,26.57
2023-04-17T02:07:16.586Z,24.53
2023-04-17T02:09:43.640Z,26.70
2023-04-17T02:12:10.622Z,23.50
2023-04-17T02:14:37.606Z,25.33
2023-04-17T02:17:05.006Z,23.23
2023-04-17T02:19:31.990Z,24.37
2023-04-17T02:21:58.981Z,23.80
2023-04-17T02:24:26.304Z,25.03
2023-04-17T02:26:53.255Z,25.77
2023-04-17T02:29:20.306Z,23.53
2023-04-17T02:31:47.318Z,23.40
2023-04-17T02:34:14.359Z,27.02
2023-04-17T02:36:41.431Z,25.10
2023-04-17T02:39:08.410Z,23.97
2023-04-17T02:41:35.408Z,23.53
2023-04-17T02:44:02.418Z,23.87
2023-04-17T02:46:29.450Z,24.77
2023-04-17T02:48:56.458Z,25.97
2023-04-17T02:51:23.465Z,26.07
2023-04-17T02:53:50.573Z,25.27
2023-04-17T02:56:17.963Z,26.70
2023-04-17T02:58:45.495Z,23.63
2023-04-17T03:01:12.592Z,23.97
2023-04-17T03:03:42.044Z,28.60
2023-04-17T03:06:09.959Z,24.47
2023-04-17T03:08:38.366Z,23.93
2023-04-17T03:11:06.103Z,26.73
2023-04-17T03:13:38.110Z,27.35
2023-04-17T03:16:05.598Z,26.77
2023-04-17T03:18:32.903Z,24.90
2023-04-17T03:20:59.932Z,25.23
2023-04-17T03:23:26.898Z,25.33
2023-04-17T03:25:53.960Z,25.10
2023-04-17T03:28:21.922Z,28.37
2023-04-17T03:30:49.335Z,24.33
2023-04-17T03:33:16.523Z,27.17
2023-04-17T03:35:44.088Z,24.33
2023-04-17T03:38:11.164Z,24.43
2023-04-17T03:40:38.193Z,25.23
2023-04-17T03:43:05.209Z,27.57
2023-04-17T03:45:32.277Z,25.00
2023-04-17T03:47:59.394Z,25.10
2023-04-17T03:50:26.468Z,25.00
2023-04-17T03:52:53.505Z,28.27
2023-04-17T03:55:20.804Z,23.47
2023-04-17T03:57:49.736Z,26.63
2023-04-17T04:00:17.029Z,25.30
2023-04-17T04:02:44.114Z,24.47
2023-04-17T04:05:11.209Z,23.67
2023-04-17T04:07:38.226Z,22.47
2023-04-17T04:10:05.703Z,23.13
2023-04-17T04:12:32.688Z,24.03
2023-04-17T04:14:59.680Z,24.17
2023-04-17T04:17:26.671Z,24.40
2023-04-17T04:19:53.649Z,23.60
2023-04-17T04:22:21.207Z,25.33
2023-04-17T04:24:48.167Z,26.23
2023-04-17T04:27:18.241Z,26.30
2023-04-17T04:29:45.524Z,24.50
2023-04-17T04:32:13.528Z,24.20
2023-04-17T04:34:42.030Z,26.90
2023-04-17T04:37:09.100Z,24.00
2023-04-17T04:39:37.808Z,25.00
2023-04-17T04:42:05.748Z,27.60
2023-04-17T04:44:32.846Z,27.37
2023-04-17T04:46:59.896Z,26.03
2023-04-17T04:49:27.127Z,25.90
2023-04-17T04:51:54.103Z,23.23
2023-04-17T04:54:21.072Z,24.50
2023-04-17T04:56:48.085Z,27.13
2023-04-17T04:59:15.156Z,23.23
2023-04-17T05:01:42.903Z,22.67
2023-04-17T05:04:10.043Z,23.57
2023-04-17T05:06:37.112Z,22.90
2023-04-17T05:09:04.398Z,22.80
2023-04-17T05:11:31.389Z,24.27
2023-04-17T05:13:58.374Z,24.03
2023-04-17T05:16:25.479Z,24.67
2023-04-17T05:18:52.463Z,23.53
2023-04-17T05:21:19.420Z,26.27
2023-04-17T05:23:46.475Z,24.60
2023-04-17T05:26:13.519Z,24.27
2023-04-17T05:28:40.870Z,26.97
2023-04-17T05:31:07.888Z,23.40
2023-04-17T05:33:34.900Z,23.80
2023-04-17T05:36:01.954Z,22.33
2023-04-17T05:38:28.911Z,24.27
2023-04-17T05:40:55.917Z,25.47
2023-04-17T05:43:22.971Z,21.53
2023-04-17T05:45:50.402Z,25.13
2023-04-17T05:48:17.392Z,24.00
2023-04-17T05:50:44.413Z,21.70
2023-04-17T05:53:11.433Z,23.53
2023-04-17T05:55:38.402Z,26.27
2023-04-17T05:58:20.429Z,24.00
2023-04-17T06:00:50.762Z,24.30
2023-04-17T06:03:18.644Z,24.37
2023-04-17T06:05:47.014Z,23.27
2023-04-17T06:08:14.307Z,25.43
2023-04-17T06:10:41.297Z,27.60
2023-04-17T06:13:08.287Z,26.73
2023-04-17T06:15:35.358Z,26.70
2023-04-17T06:18:02.454Z,26.13
2023-04-17T06:20:29.474Z,27.27
2023-04-17T06:22:56.996Z,24.80
2023-04-17T06:25:24.106Z,24.80
2023-04-17T06:27:51.220Z,23.97
2023-04-17T06:30:18.225Z,26.67
2023-04-17T06:32:45.505Z,28.43
2023-04-17T06:35:12.628Z,23.27
2023-04-17T06:37:39.633Z,25.97
2023-04-17T06:40:07.147Z,25.43
2023-04-17T06:42:35.364Z,23.57
2023-04-17T06:45:02.433Z,26.47
2023-04-17T06:47:29.527Z,26.80
2023-04-17T06:49:59.603Z,25.30
2023-04-17T06:52:27.004Z,25.87
2023-04-17T06:54:57.124Z,24.13
2023-04-17T06:57:24.100Z,27.23
2023-04-17T06:59:51.054Z,23.47
2023-04-17T07:02:18.145Z,24.27
2023-04-17T07:04:45.356Z,24.83
2023-04-17T07:07:12.463Z,23.53
2023-04-17T07:09:39.496Z,21.93
2023-04-17T07:12:06.593Z,24.13
2023-04-17T07:14:33.596Z,23.47
2023-04-17T07:17:00.631Z,23.47
2023-04-17T07:19:27.685Z,22.77
2023-04-17T07:21:54.661Z,22.03
2023-04-17T07:24:21.972Z,25.43
2023-04-17T07:26:49.462Z,25.43
2023-04-17T07:29:16.443Z,22.63
2023-04-17T07:31:43.458Z,25.17
2023-04-17T07:34:10.638Z,22.87
2023-04-17T07:36:37.619Z,21.70
2023-04-17T07:39:06.320Z,21.90
2023-04-17T07:41:33.393Z,20.73
2023-04-17T07:44:03.209Z,20.00
2023-04-17T07:46:30.312Z,21.83
2023-04-17T07:48:57.398Z,20.73
2023-04-17T07:51:24.354Z,22.47
2023-04-17T07:53:51.307Z,20.90
2023-04-17T07:56:18.344Z,21.33
2023-04-17T07:58:45.357Z,19.20
2023-04-17T08:01:12.326Z,20.23
2023-04-17T08:03:41.817Z,22.33
2023-04-17T08:06:09.002Z,22.42
2023-04-17T08:08:36.220Z,21.47
2023-04-17T08:11:03.199Z,19.77
2023-04-17T08:13:31.776Z,19.23
2023-04-17T08:15:59.545Z,19.57
2023-04-17T08:18:26.552Z,20.77
2023-04-17T08:20:53.755Z,18.37
2023-04-17T08:23:21.017Z,17.37
2023-04-17T08:25:48.029Z,16.10
2023-04-17T08:28:15.052Z,16.13
2023-04-17T08:30:42.114Z,15.00
2023-04-17T08:33:09.092Z,13.57
2023-04-17T08:35:36.229Z,12.33
2023-04-17T08:38:03.272Z,13.30
2023-04-17T08:40:30.330Z,13.00
2023-04-17T08:42:57.690Z,12.20
2023-04-17T08:45:24.672Z,12.80
2023-04-17T08:47:51.824Z,12.33
2023-04-17T08:50:19.941Z,12.03
2023-04-17T08:52:47.896Z,14.27
2023-04-17T08:55:16.133Z,11.43
2023-04-17T08:57:59.326Z,12.57
2023-04-17T09:00:31.548Z,11.23
2023-04-17T09:02:59.881Z,14.00
2023-04-17T09:05:30.197Z,11.60
2023-04-17T09:08:07.510Z,11.50
2023-04-17T09:10:41.769Z,11.23
2023-04-17T09:13:09.739Z,10.70
2023-04-17T09:15:37.328Z,10.80
2023-04-17T09:18:04.471Z,10.33
2023-04-17T09:20:32.504Z,10.03
2023-04-17T09:23:00.492Z,10.07
2023-04-17T09:25:28.196Z,9.67
2023-04-17T09:27:55.874Z,9.97
2023-04-17T09:30:26.828Z,9.93
2023-04-17T09:33:03.713Z,9.40
2023-04-17T09:35:31.098Z,8.77
2023-04-17T09:37:59.458Z,8.10
2023-04-17T09:40:27.815Z,8.83
2023-04-17T09:42:54.739Z,7.50
2023-04-17T09:45:22.234Z,9.03
2023-04-17T09:47:49.502Z,8.37
2023-04-17T09:50:24.842Z,7.97
2023-04-17T09:52:52.566Z,9.67
2023-04-17T09:55:23.308Z,11.40
2023-04-17T09:57:51.424Z,8.70
2023-04-17T10:00:20.045Z,7.57
2023-04-17T10:02:49.497Z,8.30
2023-04-17T10:05:17.563Z,8.23
2023-04-17T10:07:44.956Z,8.13
2023-04-17T10:10:12.601Z,8.93
2023-04-17T10:12:40.387Z,9.17
2023-04-17T10:15:08.222Z,8.23
2023-04-17T10:17:35.339Z,7.87
2023-04-17T10:20:17.751Z,7.70
2023-04-17T10:22:45.314Z,6.97
2023-04-17T10:25:23.853Z,8.67
2023-04-17T10:28:08.976Z,6.73
2023-04-17T10:31:03.697Z,7.40
2023-04-17T10:33:42.163Z,6.10
2023-04-17T10:36:31.249Z,7.73
2023-04-17T10:39:13.054Z,8.97
2023-04-17T10:41:59.042Z,8.83
2023-04-17T10:44:26.079Z,7.63
2023-04-17T10:46:53.404Z,9.13
2023-04-17T10:49:23.577Z,8.40
2023-04-17T10:51:52.233Z,8.87
2023-04-17T10:54:19.285Z,8.40
2023-04-17T10:56:48.041Z,8.43
2023-04-17T10:59:16.170Z,8.53
2023-04-17T11:01:49.231Z,9.93
2023-04-17T11:04:20.682Z,9.10
2023-04-17T11:06:48.226Z,9.83
2023-04-17T11:09:15.887Z,8.70
2023-04-17T11:11:44.996Z,10.00
2023-04-17T11:14:14.793Z,8.77
2023-04-17T11:16:43.128Z,9.03
2023-04-17T11:19:11.284Z,10.13
2023-04-17T11:21:45.269Z,11.88
2023-04-17T11:24:12.333Z,12.23
2023-04-17T11:26:59.578Z,11.57
2023-04-17T11:29:27.009Z,10.73
2023-04-17T11:31:55.249Z,11.27
2023-04-17T11:34:22.719Z,10.30
2023-04-17T11:36:53.316Z,11.37
2023-04-17T11:39:21.093Z,12.33
2023-04-17T11:41:48.387Z,13.40
2023-04-17T11:44:16.547Z,14.60
2023-04-17T11:46:44.149Z,15.33
2023-04-17T11:49:11.861Z,15.73
2023-04-17T11:51:39.053Z,15.37
2023-04-17T11:54:06.045Z,16.03
2023-04-17T11:56:33.006Z,14.17
2023-04-17T11:59:01.908Z,14.40
2023-04-17T12:01:29.044Z,16.65
2023-04-17T12:03:57.094Z,12.43
2023-04-17T12:06:24.701Z,13.53
2023-04-17T12:08:53.374Z,12.60
2023-04-17T12:11:26.313Z,13.67
2023-04-17T12:13:54.090Z,12.13
2023-04-17T12:16:21.597Z,10.23
2023-04-17T12:18:48.997Z,11.03
2023-04-17T12:21:16.101Z,10.37
2023-04-17T12:23:43.582Z,9.83
2023-04-17T12:26:10.837Z,9.70
2023-04-17T12:28:37.968Z,9.07
2023-04-17T12:31:08.136Z,7.00
2023-04-17T12:33:35.428Z,7.60
2023-04-17T12:36:03.243Z,7.77
2023-04-17T12:38:30.697Z,8.40
2023-04-17T12:40:57.952Z,7.20
2023-04-17T12:43:24.930Z,7.30
2023-04-17T12:45:53.027Z,7.20
2023-04-17T12:48:20.302Z,7.20
2023-04-17T12:50:47.317Z,6.53
2023-04-17T12:53:15.192Z,8.67
2023-04-17T12:55:43.593Z,7.80
2023-04-17T12:58:11.804Z,8.07
2023-04-17T13:00:39.427Z,8.30
2023-04-17T13:03:06.706Z,9.03
2023-04-17T13:05:33.933Z,8.00
2023-04-17T13:08:01.046Z,8.57
2023-04-17T13:10:28.074Z,8.87
2023-04-17T13:12:55.031Z,10.37
2023-04-17T13:15:22.013Z,9.13
2023-04-17T13:17:49.108Z,8.93
2023-04-17T13:20:16.432Z,9.13
2023-04-17T13:22:43.412Z,8.20
2023-04-17T13:25:10.585Z,7.93
2023-04-17T13:27:37.760Z,8.53
2023-04-17T13:30:04.848Z,8.00
2023-04-17T13:32:31.931Z,8.90
2023-04-17T13:34:59.067Z,9.10
2023-04-17T13:37:26.059Z,8.77
2023-04-17T13:39:53.112Z,9.80
2023-04-17T13:42:20.421Z,7.30
2023-04-17T13:44:47.472Z,7.77
2023-04-17T13:47:14.512Z,7.37
2023-04-17T13:49:41.608Z,8.23
2023-04-17T13:52:08.656Z,7.30
2023-04-17T13:54:35.650Z,6.93
2023-04-17T13:57:02.681Z,7.27
2023-04-17T13:59:29.726Z,6.57
2023-04-17T14:01:56.876Z,6.93
2023-04-17T14:04:24.044Z,6.20
2023-04-17T14:06:51.433Z,6.63
2023-04-17T14:09:18.497Z,6.40
2023-04-17T14:11:45.528Z,6.40
2023-04-17T14:14:12.825Z,6.03
2023-04-17T14:16:43.464Z,5.80
2023-04-17T14:19:13.951Z,5.33
2023-04-17T14:21:41.743Z,6.27
2023-04-17T14:24:08.985Z,5.93
2023-04-17T14:26:37.447Z,6.60
2023-04-17T14:29:04.729Z,6.63
2023-04-17T14:31:31.913Z,6.10
2023-04-17T14:33:59.059Z,5.70
2023-04-17T14:36:26.223Z,8.87
2023-04-17T14:38:54.198Z,6.00
2023-04-17T14:41:21.198Z,7.30
2023-04-17T14:43:48.211Z,5.90
2023-04-17T14:46:15.327Z,6.43
2023-04-17T14:48:54.844Z,6.20
2023-04-17T14:51:23.726Z,6.13
2023-04-17T14:53:53.206Z,7.70
2023-04-17T14:56:21.415Z,6.70
2023-04-17T14:58:48.511Z,6.50
2023-04-17T15:01:15.693Z,6.63
2023-04-17T15:03:46.660Z,6.72
2023-04-17T15:06:15.348Z,6.37
2023-04-17T15:08:42.536Z,5.23
2023-04-17T15:11:09.563Z,5.30
2023-04-17T15:13:36.526Z,6.97
2023-04-17T15:16:03.643Z,5.80
2023-04-17T15:18:30.908Z,5.73
2023-04-17T15:20:58.029Z,6.30
2023-04-17T15:23:29.568Z,5.17
2023-04-17T15:25:57.760Z,5.73
2023-04-17T15:28:25.269Z,5.53
2023-04-17T15:30:52.319Z,5.63
2023-04-17T15:33:19.470Z,6.00
2023-04-17T15:35:46.453Z,6.10
2023-04-17T15:38:13.499Z,6.03
2023-04-17T15:40:40.482Z,6.27
2023-04-17T15:43:07.492Z,6.70
2023-04-17T15:45:34.434Z,5.53
2023-04-17T15:48:01.632Z,6.33
2023-04-17T15:50:28.742Z,5.57
2023-04-17T15:52:55.730Z,5.43
2023-04-17T15:55:22.699Z,5.73
2023-04-17T15:57:49.697Z,5.03
2023-04-17T16:00:16.962Z,7.70
2023-04-17T16:02:47.468Z,6.13
2023-04-17T16:05:15.177Z,5.30
2023-04-17T16:07:42.169Z,9.37
2023-04-17T16:10:15.609Z,5.03
2023-04-17T16:12:43.272Z,5.37
2023-04-17T16:15:14.463Z,5.03
2023-04-17T16:17:41.806Z,5.18
2023-04-17T16:20:09.076Z,9.17
2023-04-17T16:22:36.069Z,4.83
2023-04-17T16:25:03.283Z,5.63
2023-04-17T16:27:30.991Z,5.97
2023-04-17T16:29:58.003Z,6.97
2023-04-17T16:32:25.598Z,5.10
2023-04-17T16:34:52.746Z,5.13
2023-04-17T16:37:19.764Z,4.50
2023-04-17T16:39:47.144Z,5.00
2023-04-17T16:42:14.480Z,4.27
2023-04-17T16:44:41.481Z,3.70
2023-04-17T16:49:38.418Z,4.67
2023-04-17T16:52:05.494Z,3.93
2023-04-17T16:54:32.463Z,3.67
2023-04-17T16:56:59.448Z,3.83
2023-04-17T16:59:26.673Z,4.13
2023-04-17T17:01:53.767Z,3.60
2023-04-17T17:04:21.245Z,3.00
2023-04-17T17:06:48.206Z,3.27
2023-04-17T17:09:15.545Z,2.90
2023-04-17T17:11:42.640Z,2.93
2023-04-17T17:14:09.676Z,3.20
2023-04-17T17:16:36.894Z,4.00
2023-04-17T17:19:04.160Z,4.10
2023-04-17T17:21:31.322Z,3.77
2023-04-17T17:23:58.418Z,2.77
2023-04-17T17:26:25.734Z,2.73
2023-04-17T17:28:53.393Z,2.97
2023-04-17T17:31:20.851Z,3.00
2023-04-17T17:33:50.012Z,4.17
2023-04-17T17:36:17.397Z,3.00
2023-04-17T17:38:44.579Z,3.23
2023-04-17T17:41:11.680Z,4.37
2023-04-17T17:43:38.812Z,2.93
2023-04-17T17:46:06.281Z,3.30
2023-04-17T17:48:35.502Z,2.93
2023-04-17T17:51:02.446Z,2.80
2023-04-17T17:53:29.485Z,4.20
2023-04-17T17:55:57.031Z,3.10
2023-04-17T17:58:24.516Z,2.97
2023-04-17T18:00:51.609Z,2.73
2023-04-17T18:03:19.202Z,4.45
2023-04-17T18:05:47.205Z,5.83
2023-04-17T18:08:14.375Z,2.60
2023-04-17T18:10:41.379Z,3.13
2023-04-17T18:13:08.367Z,2.70
2023-04-17T18:15:36.598Z,3.00
2023-04-17T18:18:03.721Z,2.90
2023-04-17T18:20:30.723Z,3.00
2023-04-17T18:22:57.756Z,2.80
2023-04-17T18:25:25.627Z,3.00
2023-04-17T18:27:52.699Z,2.80
2023-04-17T18:30:19.647Z,2.47
2023-04-17T18:32:46.767Z,2.67
2023-04-17T18:35:13.832Z,2.70
2023-04-17T18:37:43.202Z,3.63
2023-04-17T18:40:10.438Z,2.70
2023-04-17T18:42:37.513Z,2.80
2023-04-17T18:45:04.723Z,2.67
2023-04-17T18:47:31.762Z,3.17
2023-04-17T18:49:58.765Z,3.43
2023-04-17T18:52:25.839Z,4.00
2023-04-17T18:54:52.851Z,3.23
2023-04-17T18:57:19.844Z,3.10
2023-04-17T18:59:46.818Z,3.40
2023-04-17T19:02:14.748Z,4.77
2023-04-17T19:04:41.728Z,6.40
2023-04-17T19:07:08.702Z,4.10
2023-04-17T19:09:35.665Z,7.57
2023-04-17T19:12:02.775Z,4.70
2023-04-17T19:14:32.458Z,4.23
2023-04-17T19:16:59.471Z,5.60
2023-04-17T19:19:26.439Z,6.67
2023-04-17T19:21:53.447Z,6.07
2023-04-17T19:24:20.497Z,6.43
2023-04-17T19:26:47.497Z,5.40
2023-04-17T19:29:16.961Z,5.17
2023-04-17T19:31:44.326Z,5.63
2023-04-17T19:34:11.426Z,5.53
2023-04-17T19:36:38.461Z,5.73
2023-04-17T19:39:05.515Z,6.70
2023-04-17T19:41:32.510Z,6.17
2023-04-17T19:43:59.459Z,14.97
2023-04-17T19:46:27.389Z,12.77
2023-04-17T19:48:54.449Z,7.00
2023-04-17T19:51:21.572Z,9.33
2023-04-17T19:53:48.802Z,15.77
2023-04-17T19:56:15.949Z,10.27
2023-04-17T19:58:43.038Z,8.93
2023-04-17T20:01:10.123Z,7.53
2023-04-17T20:03:39.257Z,6.57
2023-04-17T20:06:06.622Z,8.70
2023-04-17T20:08:36.019Z,34.90
2023-04-17T20:11:04.350Z,135.10
2023-04-17T20:13:31.319Z,23.00
2023-04-17T20:15:58.304Z,9.23
2023-04-17T20:18:25.569Z,8.27
2023-04-17T20:20:52.544Z,8.17
2023-04-17T20:23:19.629Z,9.20
2023-04-17T20:25:46.635Z,8.77
2023-04-17T20:28:13.780Z,9.87
2023-04-17T20:30:40.798Z,10.17
2023-04-17T20:33:07.854Z,10.37
2023-04-17T20:35:34.886Z,13.67
2023-04-17T20:38:02.266Z,9.93
2023-04-17T20:40:29.727Z,10.47
2023-04-17T20:42:56.718Z,15.60
2023-04-17T20:45:23.784Z,11.20
2023-04-17T20:50:21.055Z,11.07
2023-04-17T20:52:48.130Z,12.43
2023-04-17T20:55:18.092Z,10.10
2023-04-17T20:57:45.215Z,10.80
2023-04-17T21:00:12.687Z,10.03
2023-04-17T21:02:39.787Z,18.20
2023-04-17T21:05:07.653Z,19.50
2023-04-17T21:07:34.667Z,14.27
2023-04-17T21:10:01.650Z,11.33
2023-04-17T21:12:28.695Z,17.07
2023-04-17T21:14:55.647Z,19.10
2023-04-17T21:17:22.780Z,18.73
2023-04-17T21:19:49.767Z,15.80
2023-04-17T21:22:16.751Z,31.27
2023-04-17T21:24:43.729Z,15.30
2023-04-17T21:27:10.727Z,11.37
2023-04-17T21:29:37.691Z,12.40
2023-04-17T21:32:04.861Z,18.93
2023-04-17T21:34:32.008Z,14.77
2023-04-17T21:37:01.205Z,22.53
2023-04-17T21:39:28.244Z,30.60
2023-04-17T21:41:55.238Z,37.90
2023-04-17T21:44:22.236Z,14.97
2023-04-17T21:46:49.192Z,41.13
2023-04-17T21:49:17.657Z,43.23
2023-04-17T21:51:44.650Z,33.87
2023-04-17T21:54:11.786Z,16.83
2023-04-17T21:56:38.901Z,24.67
2023-04-17T21:59:05.950Z,14.20
2023-04-17T22:01:33.074Z,15.63
2023-04-17T22:04:00.116Z,23.40
2023-04-17T22:06:27.405Z,15.73
2023-04-17T22:08:54.431Z,15.80
2023-04-17T22:11:21.450Z,19.90
2023-04-17T22:13:48.428Z,15.23
2023-04-17T22:16:15.665Z,19.17
2023-04-17T22:18:42.642Z,16.40
2023-04-17T22:21:09.635Z,26.27
2023-04-17T22:23:36.605Z,30.03
2023-04-17T22:26:03.638Z,45.90
2023-04-17T22:28:31.358Z,28.30
2023-04-17T22:30:59.030Z,22.00
2023-04-17T22:33:26.221Z,23.83
2023-04-17T22:35:53.486Z,20.07
2023-04-17T22:38:21.159Z,22.73
2023-04-17T22:40:48.599Z,20.80
2023-04-17T22:43:15.625Z,18.17
2023-04-17T22:45:42.638Z,17.87
2023-04-17T22:48:09.622Z,20.50
2023-04-17T22:50:37.546Z,21.30
2023-04-17T22:53:04.539Z,22.17
2023-04-17T22:55:31.662Z,18.70
2023-04-17T22:57:58.652Z,17.27
2023-04-17T23:00:25.959Z,20.43
2023-04-17T23:02:53.020Z,17.40
2023-04-17T23:05:20.207Z,17.83
2023-04-17T23:07:47.310Z,17.30
2023-04-17T23:10:14.299Z,17.30
2023-04-17T23:12:41.397Z,18.05
2023-04-17T23:15:08.804Z,15.43
2023-04-17T23:17:35.931Z,15.80
2023-04-17T23:20:03.862Z,15.57
2023-04-17T23:22:30.946Z,14.40
2023-04-17T23:24:58.026Z,15.30
2023-04-17T23:27:25.746Z,14.47
2023-04-17T23:29:52.746Z,15.17
2023-04-17T23:32:19.798Z,15.97
2023-04-17T23:34:46.835Z,15.20
2023-04-17T23:37:13.881Z,14.80
2023-04-17T23:39:42.525Z,15.37
2023-04-17T23:42:09.652Z,16.07
2023-04-17T23:44:36.689Z,16.10
2023-04-17T23:47:04.137Z,15.97
2023-04-17T23:49:31.299Z,15.33
2023-04-17T23:51:58.322Z,15.93
2023-04-17T23:54:25.363Z,16.93
2023-04-17T23:56:52.346Z,15.43
2023-04-17T23:59:19.377Z,15.83
